CCWO2: Washita River, nr Cordell 9E

Data processed at Wed May 22 2019 23:50


All information presented herein is the property of the government of the United States of America and may be revised or deleted at any time without prior notice.
Dissemination of this information without the expressed written consent of the Public Affairs Office, Tulsa District U.S. Army Corps of Engineers is strictly prohibited.
These data are gathered electronically and, as presented, have not undergone any form of quality control. These data are not guaranteed to be valid or correct.
Go to home page.
Go to station list.
Go to home page.

Upstream stations:

Downstream station:
Previous Day
Next Day
Current Day
    
SHEF ID:       CCWO2     Washita River, nr Cordell 9E
STATION TYPE:  
Regulating: Stage =    21.00, Flow =     4072

               PRECIP     STAGE  RIV-FLOW   VOLTAGE
                   in        ft       cfs      volt
              Ccp-Rev   Ccp-Rev   Ccp-Rev   Ccp-Rev
(US/Central)
05/22 00:00      0.00     15.35      2307     13.20
05/22 01:00      0.00     14.98      2212     13.20
05/22 02:00      0.00     14.68      2135     13.20
05/22 03:00      0.00     14.19      2010     13.20
05/22 04:00      0.00     13.89      1933     13.10
05/22 05:00      0.00     13.64      1869     13.10
05/22 06:00      0.00     13.32      1787     13.00
05/22 07:00      0.00     13.19      1754     13.20
05/22 08:00      0.00     13.14      1741     13.70
05/22 09:00      0.00     13.43      1816     14.40
05/22 10:00      0.00     14.09      1984     14.30
05/22 11:00      0.00     15.24      2279     14.20
05/22 12:00      0.00     16.64      2655     14.10
05/22 13:00      0.00     17.79      3029     13.70
05/22 14:00      0.00     19.65      3633     14.00
05/22 15:00      0.00     20.37      3868     13.90
05/22 16:00      0.00     20.45      3894     13.90
05/22 17:00      0.00     20.77      3998     13.90
05/22 18:00      0.00     20.12      3786     13.90
05/22 19:00      0.00     20.16      3799     13.70
05/22 20:00      0.00     20.37      3868     13.40
05/22 21:00      0.00     20.14      3793     13.20
05/22 22:00      0.00     19.89      3711     13.20
05/22 23:00      0.02     19.35      3536     13.20